Nearby METAR Reports

 

KHQM - Hoquiam,WA, USA
Updated: Sun, 21-Jan-2018 9:53pm PST
Mostly cloudy
Mostly cloudy
 Wind from S
Wind: S 14 mph , 22 km/h
Temperature: 45°F , 7°C
Wind Chill: 39°F , 4°C
Dew Point: 43°F , 6°C
Humidity: 93%
Barometer: 30.01 inHg , 1016.3 hPa
Clouds: Mostly cloudy
Visibility: 9 miles , 14 km
Cloud details: Few Clouds 2900 ft
Mostly cloudy 4900 ft
2018/01/22 05:53 KHQM 220553Z AUTO 17012KT 9SM FEW029 BKN049 07/06 A3001 RMK AO2 SLP164 60001 T00720056 10089 20067 53015